sensor_id;sensor_type;location;lat;lon;timestamp;temperature;humidity
10390;DHT22;5241;47.830;12.972;2023-07-24T00:01:19;20.40;99.90
10390;DHT22;5241;47.830;12.972;2023-07-24T00:03:45;20.30;99.90
10390;DHT22;5241;47.830;12.972;2023-07-24T00:06:10;20.40;99.90
10390;DHT22;5241;47.830;12.972;2023-07-24T00:08:36;20.30;99.90
10390;DHT22;5241;47.830;12.972;2023-07-24T00:11:02;20.40;99.90
10390;DHT22;5241;47.830;12.972;2023-07-24T00:13:30;20.40;99.90
10390;DHT22;5241;47.830;12.972;2023-07-24T00:15:57;20.30;99.90
10390;DHT22;5241;47.830;12.972;2023-07-24T00:18:22;20.30;99.90
10390;DHT22;5241;47.830;12.972;2023-07-24T00:20:48;20.30;99.90
10390;DHT22;5241;47.830;12.972;2023-07-24T00:23:14;20.30;99.90
10390;DHT22;5241;47.830;12.972;2023-07-24T00:25:39;20.30;99.90
10390;DHT22;5241;47.830;12.972;2023-07-24T00:28:05;20.30;99.90
10390;DHT22;5241;47.830;12.972;2023-07-24T00:30:34;20.20;99.90
10390;DHT22;5241;47.830;12.972;2023-07-24T00:32:59;20.20;99.90
10390;DHT22;5241;47.830;12.972;2023-07-24T00:35:28;20.20;99.90
10390;DHT22;5241;47.830;12.972;2023-07-24T00:37:53;20.20;99.90
10390;DHT22;5241;47.830;12.972;2023-07-24T00:40:19;20.10;99.90
10390;DHT22;5241;47.830;12.972;2023-07-24T00:42:48;20.10;99.90
10390;DHT22;5241;47.830;12.972;2023-07-24T00:45:14;20.10;99.90
10390;DHT22;5241;47.830;12.972;2023-07-24T00:47:41;20.20;99.90
10390;DHT22;5241;47.830;12.972;2023-07-24T00:50:07;20.10;99.90
10390;DHT22;5241;47.830;12.972;2023-07-24T00:52:33;20.10;99.90
10390;DHT22;5241;47.830;12.972;2023-07-24T00:54:59;20.10;99.90
10390;DHT22;5241;47.830;12.972;2023-07-24T00:57:25;20.10;99.90
10390;DHT22;5241;47.830;12.972;2023-07-24T00:59:51;20.10;99.90
10390;DHT22;5241;47.830;12.972;2023-07-24T01:02:16;20.10;99.90
10390;DHT22;5241;47.830;12.972;2023-07-24T01:04:42;20.00;99.90
10390;DHT22;5241;47.830;12.972;2023-07-24T01:07:08;20.00;99.90
10390;DHT22;5241;47.830;12.972;2023-07-24T01:09:34;20.00;99.90
10390;DHT22;5241;47.830;12.972;2023-07-24T01:12:07;20.10;99.90
10390;DHT22;5241;47.830;12.972;2023-07-24T01:14:46;20.00;99.90
10390;DHT22;5241;47.830;12.972;2023-07-24T01:17:15;19.90;99.90
10390;DHT22;5241;47.830;12.972;2023-07-24T01:19:49;19.90;99.90
10390;DHT22;5241;47.830;12.972;2023-07-24T01:22:27;19.90;99.90
10390;DHT22;5241;47.830;12.972;2023-07-24T01:25:09;19.90;99.90
10390;DHT22;5241;47.830;12.972;2023-07-24T01:27:41;19.90;99.90
10390;DHT22;5241;47.830;12.972;2023-07-24T01:30:07;19.90;99.90
10390;DHT22;5241;47.830;12.972;2023-07-24T01:32:33;19.90;99.90
10390;DHT22;5241;47.830;12.972;2023-07-24T01:34:59;20.00;99.90
10390;DHT22;5241;47.830;12.972;2023-07-24T01:37:25;20.00;99.90
10390;DHT22;5241;47.830;12.972;2023-07-24T01:39:51;20.00;99.90
10390;DHT22;5241;47.830;12.972;2023-07-24T01:42:18;19.90;99.90
10390;DHT22;5241;47.830;12.972;2023-07-24T01:44:43;19.90;99.90
10390;DHT22;5241;47.830;12.972;2023-07-24T01:47:09;19.80;99.90
10390;DHT22;5241;47.830;12.972;2023-07-24T01:49:35;19.70;99.90
10390;DHT22;5241;47.830;12.972;2023-07-24T01:52:00;19.80;99.90
10390;DHT22;5241;47.830;12.972;2023-07-24T01:54:26;19.70;99.90
10390;DHT22;5241;47.830;12.972;2023-07-24T01:56:52;19.70;99.90
10390;DHT22;5241;47.830;12.972;2023-07-24T01:59:17;19.80;99.90
10390;DHT22;5241;47.830;12.972;2023-07-24T02:01:43;19.70;99.90
10390;DHT22;5241;47.830;12.972;2023-07-24T02:04:08;19.70;99.90
10390;DHT22;5241;47.830;12.972;2023-07-24T02:06:34;19.70;99.90
10390;DHT22;5241;47.830;12.972;2023-07-24T02:08:59;19.70;99.90
10390;DHT22;5241;47.830;12.972;2023-07-24T02:11:25;19.80;99.90
10390;DHT22;5241;47.830;12.972;2023-07-24T02:13:50;19.80;99.90
10390;DHT22;5241;47.830;12.972;2023-07-24T02:16:16;19.70;99.90
10390;DHT22;5241;47.830;12.972;2023-07-24T02:18:43;19.70;99.90
10390;DHT22;5241;47.830;12.972;2023-07-24T02:21:09;19.70;99.90
10390;DHT22;5241;47.830;12.972;2023-07-24T02:23:35;19.70;99.90
10390;DHT22;5241;47.830;12.972;2023-07-24T02:26:01;19.60;99.90
10390;DHT22;5241;47.830;12.972;2023-07-24T02:28:27;19.50;99.90
10390;DHT22;5241;47.830;12.972;2023-07-24T02:30:52;19.50;99.90
10390;DHT22;5241;47.830;12.972;2023-07-24T02:33:21;19.40;99.90
10390;DHT22;5241;47.830;12.972;2023-07-24T02:35:47;19.40;99.90
10390;DHT22;5241;47.830;12.972;2023-07-24T02:38:13;19.40;99.90
10390;DHT22;5241;47.830;12.972;2023-07-24T02:40:40;19.50;99.90
10390;DHT22;5241;47.830;12.972;2023-07-24T02:43:06;19.50;99.90
10390;DHT22;5241;47.830;12.972;2023-07-24T02:45:34;19.50;99.90
10390;DHT22;5241;47.830;12.972;2023-07-24T02:48:00;19.50;99.90
10390;DHT22;5241;47.830;12.972;2023-07-24T02:50:27;19.50;99.90
10390;DHT22;5241;47.830;12.972;2023-07-24T02:52:52;19.60;99.90
10390;DHT22;5241;47.830;12.972;2023-07-24T02:55:18;19.70;99.90
10390;DHT22;5241;47.830;12.972;2023-07-24T02:57:43;19.70;99.90
10390;DHT22;5241;47.830;12.972;2023-07-24T03:00:10;19.60;99.90
10390;DHT22;5241;47.830;12.972;2023-07-24T03:02:35;19.60;99.90
10390;DHT22;5241;47.830;12.972;2023-07-24T03:05:01;19.60;99.90
10390;DHT22;5241;47.830;12.972;2023-07-24T03:07:27;19.60;99.90
10390;DHT22;5241;47.830;12.972;2023-07-24T03:09:53;19.60;99.90
10390;DHT22;5241;47.830;12.972;2023-07-24T03:12:18;19.60;99.90
10390;DHT22;5241;47.830;12.972;2023-07-24T03:14:44;19.60;99.90
10390;DHT22;5241;47.830;12.972;2023-07-24T03:17:09;19.70;99.90
10390;DHT22;5241;47.830;12.972;2023-07-24T03:19:35;19.70;99.90
10390;DHT22;5241;47.830;12.972;2023-07-24T03:22:06;19.70;99.90
10390;DHT22;5241;47.830;12.972;2023-07-24T03:24:32;19.60;99.90
10390;DHT22;5241;47.830;12.972;2023-07-24T03:26:58;19.60;99.90
10390;DHT22;5241;47.830;12.972;2023-07-24T03:29:25;19.70;99.90
10390;DHT22;5241;47.830;12.972;2023-07-24T03:31:51;19.70;99.90
10390;DHT22;5241;47.830;12.972;2023-07-24T03:34:17;19.80;99.90
10390;DHT22;5241;47.830;12.972;2023-07-24T03:36:42;19.80;99.90
10390;DHT22;5241;47.830;12.972;2023-07-24T03:39:09;19.80;99.90
10390;DHT22;5241;47.830;12.972;2023-07-24T03:41:35;19.80;99.90
10390;DHT22;5241;47.830;12.972;2023-07-24T03:44:00;19.80;99.90
10390;DHT22;5241;47.830;12.972;2023-07-24T03:46:26;19.70;99.90
10390;DHT22;5241;47.830;12.972;2023-07-24T03:48:51;19.70;99.90
10390;DHT22;5241;47.830;12.972;2023-07-24T03:51:17;19.70;99.90
10390;DHT22;5241;47.830;12.972;2023-07-24T03:53:43;19.60;99.90
10390;DHT22;5241;47.830;12.972;2023-07-24T03:56:08;19.60;99.90
10390;DHT22;5241;47.830;12.972;2023-07-24T03:58:34;19.70;99.90
10390;DHT22;5241;47.830;12.972;2023-07-24T04:01:00;19.80;99.90
10390;DHT22;5241;47.830;12.972;2023-07-24T04:03:25;19.80;99.90
10390;DHT22;5241;47.830;12.972;2023-07-24T04:05:51;19.80;99.90
10390;DHT22;5241;47.830;12.972;2023-07-24T04:08:16;19.90;99.90
10390;DHT22;5241;47.830;12.972;2023-07-24T04:10:42;19.90;99.90
10390;DHT22;5241;47.830;12.972;2023-07-24T04:13:08;19.90;99.90
10390;DHT22;5241;47.830;12.972;2023-07-24T04:15:33;20.00;99.90
10390;DHT22;5241;47.830;12.972;2023-07-24T04:17:59;20.00;99.90
10390;DHT22;5241;47.830;12.972;2023-07-24T04:20:24;20.10;99.90
10390;DHT22;5241;47.830;12.972;2023-07-24T04:22:50;20.20;99.90
10390;DHT22;5241;47.830;12.972;2023-07-24T04:25:15;20.30;99.90
10390;DHT22;5241;47.830;12.972;2023-07-24T04:27:41;20.40;99.90
10390;DHT22;5241;47.830;12.972;2023-07-24T04:30:07;20.50;99.90
10390;DHT22;5241;47.830;12.972;2023-07-24T04:32:33;20.60;99.90
10390;DHT22;5241;47.830;12.972;2023-07-24T04:34:58;20.40;99.90
10390;DHT22;5241;47.830;12.972;2023-07-24T04:37:24;20.10;99.90
10390;DHT22;5241;47.830;12.972;2023-07-24T04:39:49;20.10;99.90
10390;DHT22;5241;47.830;12.972;2023-07-24T04:42:15;20.00;99.90
10390;DHT22;5241;47.830;12.972;2023-07-24T04:44:40;20.20;99.90
10390;DHT22;5241;47.830;12.972;2023-07-24T04:47:06;20.10;99.90
10390;DHT22;5241;47.830;12.972;2023-07-24T04:49:31;20.10;99.90
10390;DHT22;5241;47.830;12.972;2023-07-24T04:52:07;20.10;99.90
10390;DHT22;5241;47.830;12.972;2023-07-24T04:54:32;20.00;99.90
10390;DHT22;5241;47.830;12.972;2023-07-24T04:56:58;19.90;99.90
10390;DHT22;5241;47.830;12.972;2023-07-24T04:59:23;19.90;99.90
10390;DHT22;5241;47.830;12.972;2023-07-24T05:01:49;19.90;99.90
10390;DHT22;5241;47.830;12.972;2023-07-24T05:04:15;19.90;99.90
10390;DHT22;5241;47.830;12.972;2023-07-24T05:06:40;20.20;99.90
10390;DHT22;5241;47.830;12.972;2023-07-24T05:09:06;20.30;99.90
10390;DHT22;5241;47.830;12.972;2023-07-24T05:11:32;20.40;99.90
10390;DHT22;5241;47.830;12.972;2023-07-24T05:13:57;20.70;99.90
10390;DHT22;5241;47.830;12.972;2023-07-24T05:16:23;20.90;99.90
10390;DHT22;5241;47.830;12.972;2023-07-24T05:18:48;20.70;99.90
10390;DHT22;5241;47.830;12.972;2023-07-24T05:21:14;20.70;99.90
10390;DHT22;5241;47.830;12.972;2023-07-24T05:23:39;20.60;99.90
10390;DHT22;5241;47.830;12.972;2023-07-24T05:26:05;20.50;99.90
10390;DHT22;5241;47.830;12.972;2023-07-24T05:28:31;20.50;99.90
10390;DHT22;5241;47.830;12.972;2023-07-24T05:31:02;20.30;99.90
10390;DHT22;5241;47.830;12.972;2023-07-24T05:33:29;20.10;99.90
10390;DHT22;5241;47.830;12.972;2023-07-24T05:36:01;19.90;99.90
10390;DHT22;5241;47.830;12.972;2023-07-24T05:38:27;19.80;99.90
10390;DHT22;5241;47.830;12.972;2023-07-24T05:40:58;19.90;99.90
10390;DHT22;5241;47.830;12.972;2023-07-24T05:43:23;20.20;99.90
10390;DHT22;5241;47.830;12.972;2023-07-24T05:45:51;20.40;99.90
10390;DHT22;5241;47.830;12.972;2023-07-24T05:48:17;20.60;99.90
10390;DHT22;5241;47.830;12.972;2023-07-24T05:50:42;20.50;99.90
10390;DHT22;5241;47.830;12.972;2023-07-24T05:53:08;20.60;99.90
10390;DHT22;5241;47.830;12.972;2023-07-24T05:55:33;20.80;99.90
10390;DHT22;5241;47.830;12.972;2023-07-24T05:57:59;21.00;99.90
10390;DHT22;5241;47.830;12.972;2023-07-24T06:00:24;21.20;99.90
10390;DHT22;5241;47.830;12.972;2023-07-24T06:02:50;21.50;99.90
10390;DHT22;5241;47.830;12.972;2023-07-24T06:05:15;21.90;99.90
10390;DHT22;5241;47.830;12.972;2023-07-24T06:07:41;22.40;99.90
10390;DHT22;5241;47.830;12.972;2023-07-24T06:10:07;22.70;99.90
10390;DHT22;5241;47.830;12.972;2023-07-24T06:12:33;23.10;99.90
10390;DHT22;5241;47.830;12.972;2023-07-24T06:14:58;23.20;99.90
10390;DHT22;5241;47.830;12.972;2023-07-24T06:17:24;23.20;99.90
10390;DHT22;5241;47.830;12.972;2023-07-24T06:19:49;23.40;99.90
10390;DHT22;5241;47.830;12.972;2023-07-24T06:22:15;23.60;99.90
10390;DHT22;5241;47.830;12.972;2023-07-24T06:24:44;23.70;99.90
10390;DHT22;5241;47.830;12.972;2023-07-24T06:27:09;23.90;99.90
10390;DHT22;5241;47.830;12.972;2023-07-24T06:29:35;24.20;99.90
10390;DHT22;5241;47.830;12.972;2023-07-24T06:32:00;24.50;99.20
10390;DHT22;5241;47.830;12.972;2023-07-24T06:34:26;24.80;98.10
10390;DHT22;5241;47.830;12.972;2023-07-24T06:36:51;25.00;97.60
10390;DHT22;5241;47.830;12.972;2023-07-24T06:39:17;25.20;96.60
10390;DHT22;5241;47.830;12.972;2023-07-24T06:41:42;25.40;96.40
10390;DHT22;5241;47.830;12.972;2023-07-24T06:44:08;25.60;95.80
10390;DHT22;5241;47.830;12.972;2023-07-24T06:46:33;25.60;95.60
10390;DHT22;5241;47.830;12.972;2023-07-24T06:48:59;25.60;95.70
10390;DHT22;5241;47.830;12.972;2023-07-24T06:51:25;25.30;95.60
10390;DHT22;5241;47.830;12.972;2023-07-24T06:53:50;25.20;95.90
10390;DHT22;5241;47.830;12.972;2023-07-24T06:56:16;25.10;96.30
10390;DHT22;5241;47.830;12.972;2023-07-24T06:58:41;25.20;95.80
10390;DHT22;5241;47.830;12.972;2023-07-24T07:01:07;25.00;96.10
10390;DHT22;5241;47.830;12.972;2023-07-24T07:03:33;25.00;97.00
10390;DHT22;5241;47.830;12.972;2023-07-24T07:06:00;24.90;96.80
10390;DHT22;5241;47.830;12.972;2023-07-24T07:08:26;25.30;95.60
10390;DHT22;5241;47.830;12.972;2023-07-24T07:10:59;25.40;95.50
10390;DHT22;5241;47.830;12.972;2023-07-24T07:13:25;25.60;95.20
10390;DHT22;5241;47.830;12.972;2023-07-24T07:15:51;25.80;95.00
10390;DHT22;5241;47.830;12.972;2023-07-24T07:18:16;25.80;94.50
10390;DHT22;5241;47.830;12.972;2023-07-24T07:20:46;25.70;94.70
10390;DHT22;5241;47.830;12.972;2023-07-24T07:23:12;25.50;94.70
10390;DHT22;5241;47.830;12.972;2023-07-24T07:25:37;25.40;95.30
10390;DHT22;5241;47.830;12.972;2023-07-24T07:28:03;25.60;95.40
10390;DHT22;5241;47.830;12.972;2023-07-24T07:30:29;26.20;94.40
10390;DHT22;5241;47.830;12.972;2023-07-24T07:32:54;26.80;93.40
10390;DHT22;5241;47.830;12.972;2023-07-24T07:35:20;27.40;93.50
10390;DHT22;5241;47.830;12.972;2023-07-24T07:37:45;28.00;92.10
10390;DHT22;5241;47.830;12.972;2023-07-24T07:40:11;28.40;90.30
10390;DHT22;5241;47.830;12.972;2023-07-24T07:42:36;28.80;88.90
10390;DHT22;5241;47.830;12.972;2023-07-24T07:45:02;28.90;86.80
10390;DHT22;5241;47.830;12.972;2023-07-24T07:47:28;29.00;85.80
10390;DHT22;5241;47.830;12.972;2023-07-24T07:49:53;29.00;84.90
10390;DHT22;5241;47.830;12.972;2023-07-24T07:52:20;28.70;85.70
10390;DHT22;5241;47.830;12.972;2023-07-24T07:54:48;28.70;85.30
10390;DHT22;5241;47.830;12.972;2023-07-24T07:57:13;28.60;86.20
10390;DHT22;5241;47.830;12.972;2023-07-24T07:59:39;28.30;86.90
10390;DHT22;5241;47.830;12.972;2023-07-24T08:02:07;27.90;88.10
10390;DHT22;5241;47.830;12.972;2023-07-24T08:04:33;28.00;87.70
10390;DHT22;5241;47.830;12.972;2023-07-24T08:06:59;28.40;88.30
10390;DHT22;5241;47.830;12.972;2023-07-24T08:09:25;28.30;89.20
10390;DHT22;5241;47.830;12.972;2023-07-24T08:11:50;28.90;88.00
10390;DHT22;5241;47.830;12.972;2023-07-24T08:14:19;29.20;85.60
10390;DHT22;5241;47.830;12.972;2023-07-24T08:16:48;28.90;85.50
10390;DHT22;5241;47.830;12.972;2023-07-24T08:19:14;28.50;86.00
10390;DHT22;5241;47.830;12.972;2023-07-24T08:21:39;28.30;86.70
10390;DHT22;5241;47.830;12.972;2023-07-24T08:24:06;28.20;87.10
10390;DHT22;5241;47.830;12.972;2023-07-24T08:26:31;28.10;87.60
10390;DHT22;5241;47.830;12.972;2023-07-24T08:28:57;27.80;86.70
10390;DHT22;5241;47.830;12.972;2023-07-24T08:31:23;27.60;88.50
10390;DHT22;5241;47.830;12.972;2023-07-24T08:33:48;27.50;88.40
10390;DHT22;5241;47.830;12.972;2023-07-24T08:36:14;27.50;88.40
10390;DHT22;5241;47.830;12.972;2023-07-24T08:38:40;27.10;89.80
10390;DHT22;5241;47.830;12.972;2023-07-24T08:41:13;27.10;90.30
10390;DHT22;5241;47.830;12.972;2023-07-24T08:43:41;27.10;90.50
10390;DHT22;5241;47.830;12.972;2023-07-24T08:46:08;27.00;90.50
10390;DHT22;5241;47.830;12.972;2023-07-24T08:48:38;27.00;91.00
10390;DHT22;5241;47.830;12.972;2023-07-24T08:51:09;26.90;91.40
10390;DHT22;5241;47.830;12.972;2023-07-24T08:53:37;26.80;91.40
10390;DHT22;5241;47.830;12.972;2023-07-24T08:56:03;26.50;91.80
10390;DHT22;5241;47.830;12.972;2023-07-24T08:58:29;26.30;92.40
10390;DHT22;5241;47.830;12.972;2023-07-24T09:00:59;26.10;92.50
10390;DHT22;5241;47.830;12.972;2023-07-24T09:03:25;25.70;92.20
10390;DHT22;5241;47.830;12.972;2023-07-24T09:05:50;25.70;92.40
10390;DHT22;5241;47.830;12.972;2023-07-24T09:08:16;25.80;92.30
10390;DHT22;5241;47.830;12.972;2023-07-24T09:10:42;25.80;92.70
10390;DHT22;5241;47.830;12.972;2023-07-24T09:13:11;26.10;92.40
10390;DHT22;5241;47.830;12.972;2023-07-24T09:15:41;26.50;91.50
10390;DHT22;5241;47.830;12.972;2023-07-24T09:18:07;26.90;91.20
10390;DHT22;5241;47.830;12.972;2023-07-24T09:20:40;27.30;90.40
10390;DHT22;5241;47.830;12.972;2023-07-24T09:23:07;27.20;91.20
10390;DHT22;5241;47.830;12.972;2023-07-24T09:25:35;27.40;91.40
10390;DHT22;5241;47.830;12.972;2023-07-24T09:28:01;27.80;91.30
10390;DHT22;5241;47.830;12.972;2023-07-24T09:30:33;27.80;91.10
10390;DHT22;5241;47.830;12.972;2023-07-24T09:32:59;28.20;90.10
10390;DHT22;5241;47.830;12.972;2023-07-24T09:35:24;27.50;91.50
10390;DHT22;5241;47.830;12.972;2023-07-24T09:38:03;26.90;92.40
10390;DHT22;5241;47.830;12.972;2023-07-24T09:40:41;27.00;92.80
10390;DHT22;5241;47.830;12.972;2023-07-24T09:43:24;26.70;93.40
10390;DHT22;5241;47.830;12.972;2023-07-24T09:45:51;26.50;93.60
10390;DHT22;5241;47.830;12.972;2023-07-24T09:48:19;26.70;94.20
10390;DHT22;5241;47.830;12.972;2023-07-24T09:50:47;27.00;93.40
10390;DHT22;5241;47.830;12.972;2023-07-24T09:56:02;27.00;94.20
10390;DHT22;5241;47.830;12.972;2023-07-24T09:58:29;27.10;93.70
10390;DHT22;5241;47.830;12.972;2023-07-24T10:00:55;26.70;93.30
10390;DHT22;5241;47.830;12.972;2023-07-24T10:03:22;27.10;92.90
10390;DHT22;5241;47.830;12.972;2023-07-24T10:05:48;27.10;93.40
10390;DHT22;5241;47.830;12.972;2023-07-24T10:08:18;27.30;91.80
10390;DHT22;5241;47.830;12.972;2023-07-24T10:10:44;27.40;92.00
10390;DHT22;5241;47.830;12.972;2023-07-24T10:13:11;27.30;91.50
10390;DHT22;5241;47.830;12.972;2023-07-24T10:15:39;27.30;91.70
10390;DHT22;5241;47.830;12.972;2023-07-24T10:18:06;27.60;92.10
10390;DHT22;5241;47.830;12.972;2023-07-24T10:20:37;27.50;92.60
10390;DHT22;5241;47.830;12.972;2023-07-24T10:23:04;27.90;91.40
10390;DHT22;5241;47.830;12.972;2023-07-24T10:25:35;28.00;90.60
10390;DHT22;5241;47.830;12.972;2023-07-24T10:28:05;28.00;90.90
10390;DHT22;5241;47.830;12.972;2023-07-24T10:30:40;28.10;90.80
10390;DHT22;5241;47.830;12.972;2023-07-24T10:33:17;28.60;90.00
10390;DHT22;5241;47.830;12.972;2023-07-24T10:35:54;28.50;88.90
10390;DHT22;5241;47.830;12.972;2023-07-24T10:38:36;28.60;87.40
10390;DHT22;5241;47.830;12.972;2023-07-24T10:41:04;28.60;88.70
10390;DHT22;5241;47.830;12.972;2023-07-24T10:43:40;28.40;87.90
10390;DHT22;5241;47.830;12.972;2023-07-24T10:46:06;28.60;87.60
10390;DHT22;5241;47.830;12.972;2023-07-24T10:48:32;28.50;87.60
10390;DHT22;5241;47.830;12.972;2023-07-24T10:50:57;28.50;89.30
10390;DHT22;5241;47.830;12.972;2023-07-24T10:53:23;28.30;88.30
10390;DHT22;5241;47.830;12.972;2023-07-24T10:55:50;28.00;88.30
10390;DHT22;5241;47.830;12.972;2023-07-24T10:58:16;28.60;86.70
10390;DHT22;5241;47.830;12.972;2023-07-24T11:00:43;28.50;86.30
10390;DHT22;5241;47.830;12.972;2023-07-24T11:03:13;28.40;88.30
10390;DHT22;5241;47.830;12.972;2023-07-24T11:05:40;28.10;86.50
10390;DHT22;5241;47.830;12.972;2023-07-24T11:08:17;28.30;87.20
10390;DHT22;5241;47.830;12.972;2023-07-24T11:10:47;28.40;86.30
10390;DHT22;5241;47.830;12.972;2023-07-24T11:13:14;28.70;86.00
10390;DHT22;5241;47.830;12.972;2023-07-24T11:15:39;28.90;85.10
10390;DHT22;5241;47.830;12.972;2023-07-24T11:18:05;29.10;83.10
10390;DHT22;5241;47.830;12.972;2023-07-24T11:20:37;29.10;83.50
10390;DHT22;5241;47.830;12.972;2023-07-24T11:23:03;29.20;82.80
10390;DHT22;5241;47.830;12.972;2023-07-24T11:25:29;29.00;82.80
10390;DHT22;5241;47.830;12.972;2023-07-24T11:27:54;29.20;83.30
10390;DHT22;5241;47.830;12.972;2023-07-24T11:30:21;29.30;81.80
10390;DHT22;5241;47.830;12.972;2023-07-24T11:32:47;28.90;81.80
10390;DHT22;5241;47.830;12.972;2023-07-24T11:35:13;29.10;81.70
10390;DHT22;5241;47.830;12.972;2023-07-24T11:37:39;29.30;82.30
10390;DHT22;5241;47.830;12.972;2023-07-24T11:40:05;29.60;79.90
10390;DHT22;5241;47.830;12.972;2023-07-24T11:42:39;29.10;81.70
10390;DHT22;5241;47.830;12.972;2023-07-24T11:45:06;29.50;79.20
10390;DHT22;5241;47.830;12.972;2023-07-24T11:47:44;29.80;77.40
10390;DHT22;5241;47.830;12.972;2023-07-24T11:50:10;30.00;76.70
10390;DHT22;5241;47.830;12.972;2023-07-24T11:52:44;29.60;77.70
10390;DHT22;5241;47.830;12.972;2023-07-24T11:55:11;29.60;77.30
10390;DHT22;5241;47.830;12.972;2023-07-24T11:57:37;29.40;75.80
10390;DHT22;5241;47.830;12.972;2023-07-24T12:00:04;29.60;78.80
10390;DHT22;5241;47.830;12.972;2023-07-24T12:02:32;30.00;78.20
10390;DHT22;5241;47.830;12.972;2023-07-24T12:04:59;30.60;76.20
10390;DHT22;5241;47.830;12.972;2023-07-24T12:07:33;30.30;73.60
10390;DHT22;5241;47.830;12.972;2023-07-24T12:10:00;30.40;75.40
10390;DHT22;5241;47.830;12.972;2023-07-24T12:12:39;30.00;77.00
10390;DHT22;5241;47.830;12.972;2023-07-24T12:15:05;30.00;76.70
10390;DHT22;5241;47.830;12.972;2023-07-24T12:17:31;30.10;78.00
10390;DHT22;5241;47.830;12.972;2023-07-24T12:19:56;29.40;80.00
10390;DHT22;5241;47.830;12.972;2023-07-24T12:22:22;29.30;79.00
10390;DHT22;5241;47.830;12.972;2023-07-24T12:24:48;29.70;78.50
10390;DHT22;5241;47.830;12.972;2023-07-24T12:27:13;30.10;78.50
10390;DHT22;5241;47.830;12.972;2023-07-24T12:29:39;30.30;77.60
10390;DHT22;5241;47.830;12.972;2023-07-24T12:32:04;30.50;76.00
10390;DHT22;5241;47.830;12.972;2023-07-24T12:34:30;30.20;77.10
10390;DHT22;5241;47.830;12.972;2023-07-24T12:36:56;30.20;77.30
10390;DHT22;5241;47.830;12.972;2023-07-24T12:39:22;30.40;74.50
10390;DHT22;5241;47.830;12.972;2023-07-24T12:41:47;30.10;76.80
10390;DHT22;5241;47.830;12.972;2023-07-24T12:44:13;30.20;78.60
10390;DHT22;5241;47.830;12.972;2023-07-24T12:46:38;30.30;77.10
10390;DHT22;5241;47.830;12.972;2023-07-24T12:49:04;31.10;74.90
10390;DHT22;5241;47.830;12.972;2023-07-24T12:51:29;31.20;73.70
10390;DHT22;5241;47.830;12.972;2023-07-24T12:53:55;30.30;76.10
10390;DHT22;5241;47.830;12.972;2023-07-24T12:56:20;29.90;77.00
10390;DHT22;5241;47.830;12.972;2023-07-24T12:58:46;29.60;79.10
10390;DHT22;5241;47.830;12.972;2023-07-24T13:01:11;29.80;79.50
10390;DHT22;5241;47.830;12.972;2023-07-24T13:03:37;30.00;79.60
10390;DHT22;5241;47.830;12.972;2023-07-24T13:06:02;30.30;78.10
10390;DHT22;5241;47.830;12.972;2023-07-24T13:08:28;30.60;76.70
10390;DHT22;5241;47.830;12.972;2023-07-24T13:10:53;30.50;78.70
10390;DHT22;5241;47.830;12.972;2023-07-24T13:13:19;31.20;76.60
10390;DHT22;5241;47.830;12.972;2023-07-24T13:15:44;32.00;73.80
10390;DHT22;5241;47.830;12.972;2023-07-24T13:18:10;32.80;72.40
10390;DHT22;5241;47.830;12.972;2023-07-24T13:20:39;32.90;71.00
10390;DHT22;5241;47.830;12.972;2023-07-24T13:23:05;33.30;70.00
10390;DHT22;5241;47.830;12.972;2023-07-24T13:25:31;34.20;67.40
10390;DHT22;5241;47.830;12.972;2023-07-24T13:27:56;33.30;68.80
10390;DHT22;5241;47.830;12.972;2023-07-24T13:30:22;33.60;67.80
10390;DHT22;5241;47.830;12.972;2023-07-24T13:32:47;32.50;70.00
10390;DHT22;5241;47.830;12.972;2023-07-24T13:35:13;32.80;69.70
10390;DHT22;5241;47.830;12.972;2023-07-24T13:37:40;32.90;70.40
10390;DHT22;5241;47.830;12.972;2023-07-24T13:40:06;33.10;68.90
10390;DHT22;5241;47.830;12.972;2023-07-24T13:42:32;32.70;70.90
10390;DHT22;5241;47.830;12.972;2023-07-24T13:44:58;32.80;70.20
10390;DHT22;5241;47.830;12.972;2023-07-24T13:47:23;33.00;68.00
10390;DHT22;5241;47.830;12.972;2023-07-24T13:49:49;31.60;72.30
10390;DHT22;5241;47.830;12.972;2023-07-24T13:52:15;30.80;75.10
10390;DHT22;5241;47.830;12.972;2023-07-24T13:54:40;30.00;78.10
10390;DHT22;5241;47.830;12.972;2023-07-24T13:57:06;29.20;80.20
10390;DHT22;5241;47.830;12.972;2023-07-24T13:59:36;28.40;83.20
10390;DHT22;5241;47.830;12.972;2023-07-24T14:02:04;28.30;83.60
10390;DHT22;5241;47.830;12.972;2023-07-24T14:04:30;28.00;84.30
10390;DHT22;5241;47.830;12.972;2023-07-24T14:06:55;27.80;85.10
10390;DHT22;5241;47.830;12.972;2023-07-24T14:09:21;27.40;86.60
10390;DHT22;5241;47.830;12.972;2023-07-24T14:11:50;27.10;87.00
10390;DHT22;5241;47.830;12.972;2023-07-24T14:14:17;26.80;87.60
10390;DHT22;5241;47.830;12.972;2023-07-24T14:16:43;26.60;89.10
10390;DHT22;5241;47.830;12.972;2023-07-24T14:19:09;26.40;89.30
10390;DHT22;5241;47.830;12.972;2023-07-24T14:21:34;26.10;88.60
10390;DHT22;5241;47.830;12.972;2023-07-24T14:24:00;25.90;89.40
10390;DHT22;5241;47.830;12.972;2023-07-24T14:26:25;25.70;89.90
10390;DHT22;5241;47.830;12.972;2023-07-24T14:28:51;25.50;89.40
10390;DHT22;5241;47.830;12.972;2023-07-24T14:31:16;25.30;89.70
10390;DHT22;5241;47.830;12.972;2023-07-24T14:33:42;24.20;93.20
10390;DHT22;5241;47.830;12.972;2023-07-24T14:36:07;23.00;96.30
10390;DHT22;5241;47.830;12.972;2023-07-24T14:38:33;22.30;99.40
10390;DHT22;5241;47.830;12.972;2023-07-24T14:40:58;21.70;99.90
10390;DHT22;5241;47.830;12.972;2023-07-24T14:43:24;21.30;99.90
10390;DHT22;5241;47.830;12.972;2023-07-24T14:45:49;20.80;99.90
10390;DHT22;5241;47.830;12.972;2023-07-24T14:48:15;20.50;99.90
10390;DHT22;5241;47.830;12.972;2023-07-24T14:50:42;20.20;99.90
10390;DHT22;5241;47.830;12.972;2023-07-24T14:53:07;20.00;99.90
10390;DHT22;5241;47.830;12.972;2023-07-24T14:55:33;19.80;99.90
10390;DHT22;5241;47.830;12.972;2023-07-24T14:57:58;19.60;99.90
10390;DHT22;5241;47.830;12.972;2023-07-24T15:00:24;19.30;99.90
10390;DHT22;5241;47.830;12.972;2023-07-24T15:02:49;19.10;99.90
10390;DHT22;5241;47.830;12.972;2023-07-24T15:05:15;19.00;99.90
10390;DHT22;5241;47.830;12.972;2023-07-24T15:07:40;19.00;99.90
10390;DHT22;5241;47.830;12.972;2023-07-24T15:10:06;19.20;99.90
10390;DHT22;5241;47.830;12.972;2023-07-24T15:12:32;19.80;99.90
10390;DHT22;5241;47.830;12.972;2023-07-24T15:14:57;20.30;99.90
10390;DHT22;5241;47.830;12.972;2023-07-24T15:17:23;20.40;99.90
10390;DHT22;5241;47.830;12.972;2023-07-24T15:19:49;20.40;99.90
10390;DHT22;5241;47.830;12.972;2023-07-24T15:22:14;20.50;99.90
10390;DHT22;5241;47.830;12.972;2023-07-24T15:24:40;20.50;99.90
10390;DHT22;5241;47.830;12.972;2023-07-24T15:27:09;20.50;99.90
10390;DHT22;5241;47.830;12.972;2023-07-24T15:29:35;20.50;99.90